Time;durP1;ratioP1;P1;durP2;ratioP2;P2;SDS_P1;SDS_P2;PMS_P1;PMS_P2;Temp;Humidity;BMP_temperature;BMP_pressure;BME280_temperature;BME280_humidity;BME280_pressure;Samples;Min_cycle;Max_cycle;Signal;HPM_P1;HPM_P2
2023/11/29 00:02:11;;;;;;;;;;;;;;;;;;5013328;28;19980;-84
2023/11/29 00:04:36;;;;;;;;;;;;;;;;;;5016221;28;20268;-85
2023/11/29 00:07:01;;;;;;;;;;;;;;;;;;5017358;28;19922;-84
2023/11/29 00:09:27;;;;;;;;;;;;;;;;;;5015426;28;19925;-85
2023/11/29 00:11:52;;;;;;;;;;;;;;;;;;5014111;28;19921;-84
2023/11/29 00:14:17;;;;;;;;;;;;;;;;;;5012402;28;19964;-85
2023/11/29 00:16:42;;;;;;;;;;;;;;;;;;5023936;28;20015;-85
2023/11/29 00:19:07;;;;;;;;;;;;;;;;;;5012200;28;20479;-84
2023/11/29 00:21:32;;;;;;;;;;;;;;;;;;5014916;28;20393;-84
2023/11/29 00:23:57;;;;;;;;;;;;;;;;;;5015651;28;20004;-85
2023/11/29 00:26:24;;;;;;;;;;;;;;;;;;5014631;28;19922;-85
2023/11/29 00:28:49;;;;;;;;;;;;;;;;;;5014366;28;19948;-85
2023/11/29 00:31:14;;;;;;;;;;;;;;;;;;5031659;28;19918;-85
2023/11/29 00:33:39;;;;;;;;;;;;;;;;;;5015445;28;19972;-85
2023/11/29 00:36:04;;;;;;;;;;;;;;;;;;5017313;28;20403;-83
2023/11/29 00:38:29;;;;;;;;;;;;;;;;;;5015818;28;20025;-85
2023/11/29 00:40:54;;;;;;;;;;;;;;;;;;5021942;28;19937;-85
2023/11/29 00:43:19;;;;;;;;;;;;;;;;;;5017160;28;19940;-85
2023/11/29 00:45:44;;;;;;;;;;;;;;;;;;5015843;28;20387;-84
2023/11/29 00:48:09;;;;;;;;;;;;;;;;;;5016273;28;20402;-84
2023/11/29 00:50:34;;;;;;;;;;;;;;;;;;5016049;28;19927;-84
2023/11/29 00:53:00;;;;;;;;;;;;;;;;;;5015860;28;20017;-85
2023/11/29 00:55:25;;;;;;;;;;;;;;;;;;5015577;28;20050;-85
2023/11/29 00:57:50;;;;;;;;;;;;;;;;;;5015242;28;19964;-84
2023/11/29 01:00:15;;;;;;;;;;;;;;;;;;5015094;28;19922;-84
2023/11/29 01:02:40;;;;;;;;;;;;;;;;;;5015686;28;19972;-84
2023/11/29 01:05:05;;;;;;;;;;;;;;;;;;5013335;28;19957;-85
2023/11/29 01:07:30;;;;;;;;;;;;;;;;;;5014483;28;20012;-85
2023/11/29 01:09:55;;;;;;;;;;;;;;;;;;5021268;28;19925;-85
2023/11/29 01:12:20;;;;;;;;;;;;;;;;;;5015718;28;19941;-85
2023/11/29 01:14:46;;;;;;;;;;;;;;;;;;5016254;28;20451;-85
2023/11/29 01:17:11;;;;;;;;;;;;;;;;;;5016033;28;20195;-85
2023/11/29 01:19:36;;;;;;;;;;;;;;;;;;5012815;28;19928;-84
2023/11/29 01:22:01;;;;;;;;;;;;;;;;;;5014823;28;19924;-84
2023/11/29 01:24:26;;;;;;;;;;;;;;;;;;5013527;28;19917;-85
2023/11/29 01:26:51;;;;;;;;;;;;;;;;;;5015079;28;19918;-84
2023/11/29 01:29:16;;;;;;;;;;;;;;;;;;5012549;28;20111;-84
2023/11/29 01:31:41;;;;;;;;;;;;;;;;;;5029488;28;19922;-84
2023/11/29 01:34:06;;;;;;;;;;;;;;;;;;5028588;28;19917;-84
2023/11/29 01:36:31;;;;;;;;;;;;;;;;;;5012618;28;19925;-83
2023/11/29 01:38:56;;;;;;;;;;;;;;;;;;5014413;28;20032;-83
2023/11/29 01:41:22;;;;;;;;;;;;;;;;;;5012388;28;19917;-85
2023/11/29 01:43:47;;;;;;;;;;;;;;;;;;5014563;28;20015;-85
2023/11/29 01:46:12;;;;;;;;;;;;;;;;;;5012524;28;20083;-85
2023/11/29 01:48:37;;;;;;;;;;;;;;;;;;5014120;28;19921;-85
2023/11/29 01:51:02;;;;;;;;;;;;;;;;;;5014377;28;19922;-84
2023/11/29 01:53:32;;;;;;;;;;;;;;;;;;5013622;28;21359;-85
2023/11/29 01:55:57;;;;;;;;;;;;;;;;;;5011031;28;19921;-85
2023/11/29 01:58:23;;;;;;;;;;;;;;;;;;5014972;28;19939;-85
2023/11/29 02:00:48;;;;;;;;;;;;;;;;;;5015058;28;19941;-84
2023/11/29 02:03:13;;;;;;;;;;;;;;;;;;5029498;28;19949;-85
2023/11/29 02:05:38;;;;;;;;;;;;;;;;;;5013529;28;19921;-84
2023/11/29 02:08:03;;;;;;;;;;;;;;;;;;5014011;28;20000;-85
2023/11/29 02:10:28;;;;;;;;;;;;;;;;;;5023666;28;20284;-84
2023/11/29 02:12:54;;;;;;;;;;;;;;;;;;5016601;28;20241;-84
2023/11/29 02:15:19;;;;;;;;;;;;;;;;;;5031602;28;20365;-85
2023/11/29 02:17:44;;;;;;;;;;;;;;;;;;5015564;28;20159;-87
2023/11/29 02:20:09;;;;;;;;;;;;;;;;;;5014948;28;20008;-85
2023/11/29 02:22:34;;;;;;;;;;;;;;;;;;5031088;28;19924;-85
2023/11/29 02:24:59;;;;;;;;;;;;;;;;;;5015023;28;19918;-84
2023/11/29 02:27:26;;;;;;;;;;;;;;;;;;5015675;28;19921;-85
2023/11/29 02:29:52;;;;;;;;;;;;;;;;;;5015483;28;19922;-84
2023/11/29 02:32:17;;;;;;;;;;;;;;;;;;5014875;28;20286;-85
2023/11/29 02:34:42;;;;;;;;;;;;;;;;;;5013629;28;19925;-83
2023/11/29 02:37:07;;;;;;;;;;;;;;;;;;5012856;28;20278;-83
2023/11/29 02:39:32;;;;;;;;;;;;;;;;;;5007785;28;20020;-85
2023/11/29 02:41:57;;;;;;;;;;;;;;;;;;5013941;28;20012;-86
2023/11/29 02:44:22;;;;;;;;;;;;;;;;;;5014910;28;19925;-85
2023/11/29 02:46:47;;;;;;;;;;;;;;;;;;5014869;28;19921;-85
2023/11/29 02:49:12;;;;;;;;;;;;;;;;;;5028161;28;19931;-84
2023/11/29 02:51:38;;;;;;;;;;;;;;;;;;5015375;28;20010;-87
2023/11/29 02:54:03;;;;;;;;;;;;;;;;;;5004566;28;19921;-85
2023/11/29 02:56:28;;;;;;;;;;;;;;;;;;5028112;28;19918;-84
2023/11/29 02:58:53;;;;;;;;;;;;;;;;;;5011924;28;19964;-85
2023/11/29 03:01:18;;;;;;;;;;;;;;;;;;5029151;28;19923;-85
2023/11/29 03:03:43;;;;;;;;;;;;;;;;;;5012450;28;19918;-85
2023/11/29 03:06:08;;;;;;;;;;;;;;;;;;5013302;28;19917;-85
2023/11/29 03:08:33;;;;;;;;;;;;;;;;;;5011831;28;19942;-85
2023/11/29 03:10:59;;;;;;;;;;;;;;;;;;5029255;28;20272;-85
2023/11/29 03:13:24;;;;;;;;;;;;;;;;;;5010809;28;19934;-84
2023/11/29 03:15:49;;;;;;;;;;;;;;;;;;5016425;28;19917;-85
2023/11/29 03:18:14;;;;;;;;;;;;;;;;;;5012342;28;19929;-84
2023/11/29 03:20:39;;;;;;;;;;;;;;;;;;5011145;28;19925;-85
2023/11/29 03:23:04;;;;;;;;;;;;;;;;;;5008300;28;19929;-85
2023/11/29 03:25:29;;;;;;;;;;;;;;;;;;5011062;28;19924;-85
2023/11/29 03:27:55;;;;;;;;;;;;;;;;;;5011540;28;19929;-83
2023/11/29 03:30:20;;;;;;;;;;;;;;;;;;5012980;28;19929;-85
2023/11/29 03:32:45;;;;;;;;;;;;;;;;;;5014243;28;19921;-84
2023/11/29 03:35:10;;;;;;;;;;;;;;;;;;5014786;28;20391;-83
2023/11/29 03:37:35;;;;;;;;;;;;;;;;;;5013279;28;19986;-85
2023/11/29 03:40:00;;;;;;;;;;;;;;;;;;5012197;28;19918;-84
2023/11/29 03:42:25;;;;;;;;;;;;;;;;;;5016327;28;19917;-85
2023/11/29 03:44:50;;;;;;;;;;;;;;;;;;5017484;28;19921;-85
2023/11/29 03:47:15;;;;;;;;;;;;;;;;;;5017855;28;19942;-84
2023/11/29 03:49:41;;;;;;;;;;;;;;;;;;5017875;28;19929;-85
2023/11/29 03:52:06;;;;;;;;;;;;;;;;;;5018482;28;19924;-84
2023/11/29 03:54:31;;;;;;;;;;;;;;;;;;5014546;28;20012;-86
2023/11/29 03:56:56;;;;;;;;;;;;;;;;;;5016537;28;19922;-87
2023/11/29 03:59:21;;;;;;;;;;;;;;;;;;5016171;28;19985;-88
2023/11/29 04:01:46;;;;;;;;;;;;;;;;;;5016610;28;19922;-88
2023/11/29 04:04:11;;;;;;;;;;;;;;;;;;5025060;28;19917;-89
2023/11/29 04:06:36;;;;;;;;;;;;;;;;;;5016334;28;19922;-86
2023/11/29 04:09:02;;;;;;;;;;;;;;;;;;5017184;28;19922;-87
2023/11/29 04:11:28;;;;;;;;;;;;;;;;;;5011423;28;19941;-86
2023/11/29 04:13:53;;;;;;;;;;;;;;;;;;5022606;28;19924;-84
2023/11/29 04:16:18;;;;;;;;;;;;;;;;;;5018040;28;19944;-87
2023/11/29 04:18:43;;;;;;;;;;;;;;;;;;5018619;28;19921;-86
2023/11/29 04:21:08;;;;;;;;;;;;;;;;;;5017886;28;19922;-87
2023/11/29 04:23:33;;;;;;;;;;;;;;;;;;5034329;28;19933;-86
2023/11/29 04:25:58;;;;;;;;;;;;;;;;;;5019466;28;19917;-87
2023/11/29 04:28:23;;;;;;;;;;;;;;;;;;5011714;28;19929;-85
2023/11/29 04:30:49;;;;;;;;;;;;;;;;;;5010685;28;19921;-84
2023/11/29 04:33:14;;;;;;;;;;;;;;;;;;5010505;28;19933;-83
2023/11/29 04:35:39;;;;;;;;;;;;;;;;;;5010285;28;20394;-85
2023/11/29 04:38:05;;;;;;;;;;;;;;;;;;5004555;28;20106;-83
2023/11/29 04:40:30;;;;;;;;;;;;;;;;;;5010251;28;20004;-86
2023/11/29 04:42:55;;;;;;;;;;;;;;;;;;5011200;28;20059;-83
2023/11/29 04:45:20;;;;;;;;;;;;;;;;;;5009384;28;20206;-81
2023/11/29 04:47:45;;;;;;;;;;;;;;;;;;5009637;28;19921;-84
2023/11/29 04:50:11;;;;;;;;;;;;;;;;;;5010820;28;20418;-84
2023/11/29 04:52:36;;;;;;;;;;;;;;;;;;5011232;28;19928;-85
2023/11/29 04:55:01;;;;;;;;;;;;;;;;;;5010640;28;19917;-84
2023/11/29 04:57:26;;;;;;;;;;;;;;;;;;5017022;28;19957;-85
2023/11/29 04:59:52;;;;;;;;;;;;;;;;;;5014294;28;19925;-85
2023/11/29 05:02:17;;;;;;;;;;;;;;;;;;5014223;28;19944;-85
2023/11/29 05:04:42;;;;;;;;;;;;;;;;;;5013683;28;19935;-84
2023/11/29 05:07:07;;;;;;;;;;;;;;;;;;5017267;28;19921;-86
2023/11/29 05:09:32;;;;;;;;;;;;;;;;;;5015698;28;19944;-85
2023/11/29 05:11:57;;;;;;;;;;;;;;;;;;5017169;28;19918;-83
2023/11/29 05:14:22;;;;;;;;;;;;;;;;;;5019373;28;20352;-84
2023/11/29 05:16:47;;;;;;;;;;;;;;;;;;5028094;28;19924;-85
2023/11/29 05:19:12;;;;;;;;;;;;;;;;;;5022783;28;19985;-85
2023/11/29 05:21:38;;;;;;;;;;;;;;;;;;5022932;28;19921;-87
2023/11/29 05:24:03;;;;;;;;;;;;;;;;;;5039002;28;20369;-83
2023/11/29 05:26:28;;;;;;;;;;;;;;;;;;5021748;28;19957;-84
2023/11/29 05:28:53;;;;;;;;;;;;;;;;;;5018928;28;19925;-83
2023/11/29 05:31:18;;;;;;;;;;;;;;;;;;5018958;28;20505;-84
2023/11/29 05:33:43;;;;;;;;;;;;;;;;;;5017984;28;20413;-83
2023/11/29 05:36:08;;;;;;;;;;;;;;;;;;5014809;28;19922;-85
2023/11/29 05:38:34;;;;;;;;;;;;;;;;;;5032095;28;19921;-83
2023/11/29 05:41:00;;;;;;;;;;;;;;;;;;5018069;28;19921;-85
2023/11/29 05:43:25;;;;;;;;;;;;;;;;;;5018246;28;20454;-84
2023/11/29 05:45:50;;;;;;;;;;;;;;;;;;5018253;28;19917;-84
2023/11/29 05:48:15;;;;;;;;;;;;;;;;;;5009979;28;19922;-84
2023/11/29 05:50:40;;;;;;;;;;;;;;;;;;5015857;28;19933;-85
2023/11/29 05:53:12;;;;;;;;;;;;;;;;;;5008643;28;20525;-83
2023/11/29 05:55:37;;;;;;;;;;;;;;;;;;5017003;28;19925;-86
2023/11/29 05:58:03;;;;;;;;;;;;;;;;;;5015677;28;19921;-85
2023/11/29 06:00:28;;;;;;;;;;;;;;;;;;5033519;28;19918;-84
2023/11/29 06:02:53;;;;;;;;;;;;;;;;;;5010146;28;19922;-83
2023/11/29 06:05:19;;;;;;;;;;;;;;;;;;5016480;28;19949;-83
2023/11/29 06:07:44;;;;;;;;;;;;;;;;;;5018287;28;19922;-84
2023/11/29 06:10:09;;;;;;;;;;;;;;;;;;5020341;28;19977;-86
2023/11/29 06:12:35;;;;;;;;;;;;;;;;;;5022000;28;19971;-84
2023/11/29 06:15:04;;;;;;;;;;;;;;;;;;5018842;28;19922;-84
2023/11/29 06:17:29;;;;;;;;;;;;;;;;;;5020294;28;20310;-84
2023/11/29 06:19:54;;;;;;;;;;;;;;;;;;5020529;28;20428;-85
2023/11/29 06:22:20;;;;;;;;;;;;;;;;;;5020495;28;20009;-85
2023/11/29 06:24:46;;;;;;;;;;;;;;;;;;5019029;28;20166;-87
2023/11/29 06:27:11;;;;;;;;;;;;;;;;;;5020792;28;19967;-83
2023/11/29 06:29:36;;;;;;;;;;;;;;;;;;5017950;28;20379;-84
2023/11/29 06:32:01;;;;;;;;;;;;;;;;;;5032843;28;20178;-83
2023/11/29 06:34:26;;;;;;;;;;;;;;;;;;5014619;28;19929;-84
2023/11/29 06:36:52;;;;;;;;;;;;;;;;;;5016907;28;20114;-84
2023/11/29 06:39:21;;;;;;;;;;;;;;;;;;5017585;28;19921;-84
2023/11/29 06:41:47;;;;;;;;;;;;;;;;;;5014497;28;19969;-83
2023/11/29 06:44:12;;;;;;;;;;;;;;;;;;5015535;28;19953;-84
2023/11/29 06:46:39;;;;;;;;;;;;;;;;;;5013883;28;19925;-83
2023/11/29 06:49:05;;;;;;;;;;;;;;;;;;5030313;28;19929;-87
2023/11/29 06:51:30;;;;;;;;;;;;;;;;;;5014618;28;19968;-86
2023/11/29 06:53:55;;;;;;;;;;;;;;;;;;5041567;28;19921;-83
2023/11/29 06:56:20;;;;;;;;;;;;;;;;;;5039821;28;19948;-85
2023/11/29 06:58:45;;;;;;;;;;;;;;;;;;5016135;28;19929;-82
2023/11/29 07:01:10;;;;;;;;;;;;;;;;;;5017166;28;19922;-85
2023/11/29 07:03:35;;;;;;;;;;;;;;;;;;5017246;28;19936;-83
2023/11/29 07:06:01;;;;;;;;;;;;;;;;;;5033797;28;19921;-85
2023/11/29 07:08:26;;;;;;;;;;;;;;;;;;5019231;28;19989;-84
2023/11/29 07:10:51;;;;;;;;;;;;;;;;;;5011148;28;19922;-86
2023/11/29 07:13:16;;;;;;;;;;;;;;;;;;5008944;28;19953;-84
2023/11/29 07:15:41;;;;;;;;;;;;;;;;;;5020783;28;19918;-83
2023/11/29 07:18:06;;;;;;;;;;;;;;;;;;5015588;28;19928;-85
2023/11/29 07:20:31;;;;;;;;;;;;;;;;;;5033696;28;20395;-84
2023/11/29 07:22:56;;;;;;;;;;;;;;;;;;5018063;28;20382;-85
2023/11/29 07:25:21;;;;;;;;;;;;;;;;;;5018379;28;19948;-85
2023/11/29 07:27:47;;;;;;;;;;;;;;;;;;5018018;28;19918;-84
2023/11/29 07:30:12;;;;;;;;;;;;;;;;;;5016986;28;19925;-85
2023/11/29 07:32:38;;;;;;;;;;;;;;;;;;5034174;28;19925;-86
2023/11/29 07:35:03;;;;;;;;;;;;;;;;;;5017129;28;20008;-86
2023/11/29 07:37:28;;;;;;;;;;;;;;;;;;5019198;28;19953;-85
2023/11/29 07:39:54;;;;;;;;;;;;;;;;;;5035785;28;19929;-85
2023/11/29 07:42:19;;;;;;;;;;;;;;;;;;5021322;28;19917;-85
2023/11/29 07:44:44;;;;;;;;;;;;;;;;;;5020686;28;19929;-86
2023/11/29 07:47:10;;;;;;;;;;;;;;;;;;5037256;28;19932;-86
2023/11/29 07:49:35;;;;;;;;;;;;;;;;;;5037014;28;19926;-85
2023/11/29 07:52:01;;;;;;;;;;;;;;;;;;5011980;28;19924;-87
2023/11/29 07:54:26;;;;;;;;;;;;;;;;;;5014598;28;19980;-85
2023/11/29 07:56:51;;;;;;;;;;;;;;;;;;5015399;28;20007;-83
2023/11/29 07:59:17;;;;;;;;;;;;;;;;;;5015738;28;20015;-85
2023/11/29 08:01:42;;;;;;;;;;;;;;;;;;5014566;28;19944;-84
2023/11/29 08:04:07;;;;;;;;;;;;;;;;;;5015213;28;19979;-83
2023/11/29 08:06:32;;;;;;;;;;;;;;;;;;5013947;28;19948;-85
2023/11/29 08:08:58;;;;;;;;;;;;;;;;;;5015391;28;19957;-85
2023/11/29 08:11:23;;;;;;;;;;;;;;;;;;5033993;28;19969;-85
2023/11/29 08:13:48;;;;;;;;;;;;;;;;;;5025058;28;19973;-85
2023/11/29 08:16:13;;;;;;;;;;;;;;;;;;5022256;28;20394;-85
2023/11/29 08:18:38;;;;;;;;;;;;;;;;;;5023305;28;19917;-87
2023/11/29 08:21:03;;;;;;;;;;;;;;;;;;5021803;28;20118;-83
2023/11/29 08:23:29;;;;;;;;;;;;;;;;;;5026081;28;19918;-87
2023/11/29 08:25:54;;;;;;;;;;;;;;;;;;5042168;28;19917;-86
2023/11/29 08:28:19;;;;;;;;;;;;;;;;;;5040620;28;19933;-84
2023/11/29 08:30:44;;;;;;;;;;;;;;;;;;5020333;28;19922;-86
2023/11/29 08:33:09;;;;;;;;;;;;;;;;;;5022896;28;19917;-85
2023/11/29 08:35:34;;;;;;;;;;;;;;;;;;5022617;28;19926;-86
2023/11/29 08:38:01;;;;;;;;;;;;;;;;;;5021408;28;20155;-85
2023/11/29 08:40:26;;;;;;;;;;;;;;;;;;5021016;28;19928;-85
2023/11/29 08:42:51;;;;;;;;;;;;;;;;;;5021130;28;19967;-87
2023/11/29 08:45:16;;;;;;;;;;;;;;;;;;5020524;28;20264;-86
2023/11/29 08:47:41;;;;;;;;;;;;;;;;;;5018663;28;19917;-85
2023/11/29 08:50:06;;;;;;;;;;;;;;;;;;5017072;28;19932;-85
2023/11/29 08:52:31;;;;;;;;;;;;;;;;;;5018628;28;20439;-84
2023/11/29 08:54:56;;;;;;;;;;;;;;;;;;5015189;28;19928;-85
2023/11/29 08:57:22;;;;;;;;;;;;;;;;;;5015665;28;20606;-85
2023/11/29 08:59:47;;;;;;;;;;;;;;;;;;5015909;28;19925;-85
2023/11/29 09:02:12;;;;;;;;;;;;;;;;;;5014262;28;19968;-85
2023/11/29 09:04:37;;;;;;;;;;;;;;;;;;5015390;28;20140;-84
2023/11/29 09:07:04;;;;;;;;;;;;;;;;;;5015290;28;19917;-85
2023/11/29 09:09:29;;;;;;;;;;;;;;;;;;5016804;28;19922;-86
2023/11/29 09:11:55;;;;;;;;;;;;;;;;;;5014495;28;19928;-85
2023/11/29 09:14:20;;;;;;;;;;;;;;;;;;5013882;28;19925;-84
2023/11/29 09:16:45;;;;;;;;;;;;;;;;;;5021415;28;19917;-85
2023/11/29 09:19:10;;;;;;;;;;;;;;;;;;5016288;28;19918;-85
2023/11/29 09:21:35;;;;;;;;;;;;;;;;;;5015578;28;19980;-86
2023/11/29 09:24:00;;;;;;;;;;;;;;;;;;5013659;28;19968;-85
2023/11/29 09:26:27;;;;;;;;;;;;;;;;;;5013307;28;20044;-84
2023/11/29 09:28:52;;;;;;;;;;;;;;;;;;5014796;28;19945;-84
2023/11/29 09:31:17;;;;;;;;;;;;;;;;;;5014127;28;19918;-85
2023/11/29 09:33:42;;;;;;;;;;;;;;;;;;5030633;28;19960;-84
2023/11/29 09:36:07;;;;;;;;;;;;;;;;;;5015543;28;19918;-84
2023/11/29 09:38:32;;;;;;;;;;;;;;;;;;5018516;28;20390;-84
2023/11/29 09:40:58;;;;;;;;;;;;;;;;;;5014910;28;19925;-85
2023/11/29 09:43:23;;;;;;;;;;;;;;;;;;5014620;28;19917;-84
2023/11/29 09:45:48;;;;;;;;;;;;;;;;;;5014984;28;19917;-85
2023/11/29 09:48:13;;;;;;;;;;;;;;;;;;5013836;28;19929;-83
2023/11/29 09:50:38;;;;;;;;;;;;;;;;;;5015356;28;19933;-86
2023/11/29 09:53:03;;;;;;;;;;;;;;;;;;5030156;28;19921;-85
2023/11/29 09:55:29;;;;;;;;;;;;;;;;;;5015941;28;19965;-86
2023/11/29 09:57:55;;;;;;;;;;;;;;;;;;5015243;28;19921;-83
2023/11/29 10:00:20;;;;;;;;;;;;;;;;;;5012933;28;19918;-84
2023/11/29 10:02:46;;;;;;;;;;;;;;;;;;5014531;28;19918;-85
2023/11/29 10:05:13;;;;;;;;;;;;;;;;;;5014738;28;19929;-85
2023/11/29 10:07:38;;;;;;;;;;;;;;;;;;5014835;28;19917;-84
2023/11/29 10:10:05;;;;;;;;;;;;;;;;;;5012163;28;19928;-84
2023/11/29 10:12:30;;;;;;;;;;;;;;;;;;5011698;28;19929;-84
2023/11/29 10:14:55;;;;;;;;;;;;;;;;;;5011115;28;19921;-84
2023/11/29 10:17:20;;;;;;;;;;;;;;;;;;5020280;28;19964;-86
2023/11/29 10:19:46;;;;;;;;;;;;;;;;;;5010993;28;20035;-86
2023/11/29 10:22:11;;;;;;;;;;;;;;;;;;5009741;28;19917;-85
2023/11/29 10:24:36;;;;;;;;;;;;;;;;;;5010327;28;19928;-84
2023/11/29 10:27:01;;;;;;;;;;;;;;;;;;5010687;28;20374;-84
2023/11/29 10:29:27;;;;;;;;;;;;;;;;;;5011513;28;19928;-84
2023/11/29 10:31:52;;;;;;;;;;;;;;;;;;5008621;28;19929;-85
2023/11/29 10:34:18;;;;;;;;;;;;;;;;;;5010628;28;19932;-84
2023/11/29 10:36:44;;;;;;;;;;;;;;;;;;5012052;28;19990;-84
2023/11/29 10:39:09;;;;;;;;;;;;;;;;;;5012599;28;19925;-84
2023/11/29 10:41:34;;;;;;;;;;;;;;;;;;5009386;28;20386;-85
2023/11/29 10:44:00;;;;;;;;;;;;;;;;;;5012034;28;20428;-85
2023/11/29 10:46:25;;;;;;;;;;;;;;;;;;5011354;28;19964;-84
2023/11/29 10:48:50;;;;;;;;;;;;;;;;;;5011196;28;19925;-84
2023/11/29 10:51:18;;;;;;;;;;;;;;;;;;5009159;28;19922;-84
2023/11/29 10:53:43;;;;;;;;;;;;;;;;;;5009584;28;20037;-85
2023/11/29 10:56:08;;;;;;;;;;;;;;;;;;5009719;28;19981;-85
2023/11/29 10:58:34;;;;;;;;;;;;;;;;;;5010061;28;19960;-84
2023/11/29 11:01:00;;;;;;;;;;;;;;;;;;5009605;28;19918;-83
2023/11/29 11:03:25;;;;;;;;;;;;;;;;;;5011266;28;19927;-85
2023/11/29 11:05:51;;;;;;;;;;;;;;;;;;5007254;28;19925;-84
2023/11/29 11:13:44;;;;;;;;;;;;;;;;;;5029599;28;19927;-83
2023/11/29 11:16:09;;;;;;;;;;;;;;;;;;5047512;28;19984;-84
2023/11/29 11:18:34;;;;;;;;;;;;;;;;;;5026261;28;19982;-85
2023/11/29 11:21:02;;;;;;;;;;;;;;;;;;5033105;28;19921;-84
2023/11/29 11:23:27;;;;;;;;;;;;;;;;;;5031763;28;19921;-84
2023/11/29 11:25:53;;;;;;;;;;;;;;;;;;5034519;28;19928;-84
2023/11/29 11:28:18;;;;;;;;;;;;;;;;;;5031859;28;19917;-84
2023/11/29 11:30:43;;;;;;;;;;;;;;;;;;5032170;28;20000;-85
2023/11/29 11:33:11;;;;;;;;;;;;;;;;;;5033791;28;19917;-83
2023/11/29 11:35:36;;;;;;;;;;;;;;;;;;5033190;28;20290;-83
2023/11/29 11:38:01;;;;;;;;;;;;;;;;;;5029658;28;19917;-86
2023/11/29 11:40:26;;;;;;;;;;;;;;;;;;5032868;28;19921;-84
2023/11/29 11:42:51;;;;;;;;;;;;;;;;;;5032613;28;19917;-84
2023/11/29 11:45:16;;;;;;;;;;;;;;;;;;5033904;28;19936;-84
2023/11/29 11:47:42;;;;;;;;;;;;;;;;;;5032230;28;20331;-85
2023/11/29 11:50:07;;;;;;;;;;;;;;;;;;5032662;28;19927;-85
2023/11/29 11:52:32;;;;;;;;;;;;;;;;;;5032584;28;19927;-85
2023/11/29 11:54:57;;;;;;;;;;;;;;;;;;5031497;28;19917;-84
2023/11/29 11:57:22;;;;;;;;;;;;;;;;;;5031729;28;19984;-83
2023/11/29 11:59:48;;;;;;;;;;;;;;;;;;5032453;28;19952;-84
2023/11/29 12:02:13;;;;;;;;;;;;;;;;;;5034308;28;19971;-84
2023/11/29 12:04:38;;;;;;;;;;;;;;;;;;5034055;28;19921;-84
2023/11/29 12:07:03;;;;;;;;;;;;;;;;;;5052701;28;19924;-85
2023/11/29 12:09:28;;;;;;;;;;;;;;;;;;5035989;28;19976;-85
2023/11/29 12:11:53;;;;;;;;;;;;;;;;;;5035839;28;19921;-85
2023/11/29 12:14:19;;;;;;;;;;;;;;;;;;5037355;28;20333;-85
2023/11/29 12:16:44;;;;;;;;;;;;;;;;;;5039375;28;19917;-84
2023/11/29 12:19:09;;;;;;;;;;;;;;;;;;5033568;28;20333;-83
2023/11/29 12:21:34;;;;;;;;;;;;;;;;;;5030962;28;20291;-84
2023/11/29 12:23:59;;;;;;;;;;;;;;;;;;5032213;28;19917;-83
2023/11/29 12:26:25;;;;;;;;;;;;;;;;;;5051308;28;19921;-83
2023/11/29 12:28:50;;;;;;;;;;;;;;;;;;5036608;28;20830;-83
2023/11/29 12:31:16;;;;;;;;;;;;;;;;;;5036285;28;20365;-84
2023/11/29 12:33:41;;;;;;;;;;;;;;;;;;5037624;28;20091;-83
2023/11/29 12:36:07;;;;;;;;;;;;;;;;;;5035852;28;19982;-84
2023/11/29 12:38:32;;;;;;;;;;;;;;;;;;5036989;28;20190;-84
2023/11/29 12:40:57;;;;;;;;;;;;;;;;;;5036734;28;19917;-83
2023/11/29 12:43:23;;;;;;;;;;;;;;;;;;5038983;28;19917;-85
2023/11/29 12:45:48;;;;;;;;;;;;;;;;;;5037138;28;20366;-83
2023/11/29 12:48:13;;;;;;;;;;;;;;;;;;5033167;28;19921;-83
2023/11/29 12:50:38;;;;;;;;;;;;;;;;;;5030780;28;19921;-82
2023/11/29 12:53:05;;;;;;;;;;;;;;;;;;5032863;28;19917;-84
2023/11/29 12:55:30;;;;;;;;;;;;;;;;;;5046151;28;19948;-84
2023/11/29 12:57:55;;;;;;;;;;;;;;;;;;5029390;28;19917;-83
2023/11/29 13:00:20;;;;;;;;;;;;;;;;;;5032803;28;19921;-83
2023/11/29 13:02:45;;;;;;;;;;;;;;;;;;5033392;28;19917;-83
2023/11/29 13:05:11;;;;;;;;;;;;;;;;;;5031333;28;19925;-82
2023/11/29 13:07:36;;;;;;;;;;;;;;;;;;5031853;28;20414;-83
2023/11/29 13:10:01;;;;;;;;;;;;;;;;;;5032690;28;19926;-85
2023/11/29 13:12:27;;;;;;;;;;;;;;;;;;5033670;28;19917;-83
2023/11/29 13:14:52;;;;;;;;;;;;;;;;;;5028858;28;20440;-83
2023/11/29 13:17:20;;;;;;;;;;;;;;;;;;5033624;28;20015;-83
2023/11/29 13:19:46;;;;;;;;;;;;;;;;;;5033333;28;19928;-82
2023/11/29 13:22:11;;;;;;;;;;;;;;;;;;5036346;28;19917;-83
2023/11/29 13:24:36;;;;;;;;;;;;;;;;;;5050969;28;19917;-83
2023/11/29 13:27:05;;;;;;;;;;;;;;;;;;5037216;28;20428;-84
2023/11/29 13:29:30;;;;;;;;;;;;;;;;;;5028819;28;19976;-84
2023/11/29 13:31:55;;;;;;;;;;;;;;;;;;5037634;28;19924;-83
2023/11/29 13:34:20;;;;;;;;;;;;;;;;;;5033327;28;20293;-84
2023/11/29 13:36:45;;;;;;;;;;;;;;;;;;5033525;28;19917;-85
2023/11/29 13:39:11;;;;;;;;;;;;;;;;;;5037300;28;19990;-81
2023/11/29 13:41:36;;;;;;;;;;;;;;;;;;5038395;28;19921;-82
2023/11/29 13:44:02;;;;;;;;;;;;;;;;;;5037282;28;19921;-82
2023/11/29 13:46:27;;;;;;;;;;;;;;;;;;5029421;28;19949;-81
2023/11/29 13:48:53;;;;;;;;;;;;;;;;;;5030129;28;20004;-82
2023/11/29 13:51:18;;;;;;;;;;;;;;;;;;5035181;28;19927;-82
2023/11/29 13:53:43;;;;;;;;;;;;;;;;;;5036460;28;20302;-81
2023/11/29 13:56:08;;;;;;;;;;;;;;;;;;5033528;28;20059;-83
2023/11/29 13:58:33;;;;;;;;;;;;;;;;;;5035201;28;20051;-82
2023/11/29 14:00:58;;;;;;;;;;;;;;;;;;5038285;28;19967;-83
2023/11/29 14:03:24;;;;;;;;;;;;;;;;;;5040013;28;19917;-83
2023/11/29 14:05:49;;;;;;;;;;;;;;;;;;5038774;28;19917;-83
2023/11/29 14:08:14;;;;;;;;;;;;;;;;;;5037525;28;19924;-85
2023/11/29 14:10:39;;;;;;;;;;;;;;;;;;5037585;28;19929;-83
2023/11/29 14:13:04;;;;;;;;;;;;;;;;;;5037371;28;19920;-84
2023/11/29 14:15:29;;;;;;;;;;;;;;;;;;5040075;28;19988;-81
2023/11/29 14:17:54;;;;;;;;;;;;;;;;;;5038451;28;19949;-83
2023/11/29 14:20:20;;;;;;;;;;;;;;;;;;5037305;28;19921;-82
2023/11/29 14:22:45;;;;;;;;;;;;;;;;;;5037456;28;19913;-83
2023/11/29 14:25:11;;;;;;;;;;;;;;;;;;5037558;28;19921;-84
2023/11/29 14:27:36;;;;;;;;;;;;;;;;;;5037612;28;19917;-84
2023/11/29 14:30:02;;;;;;;;;;;;;;;;;;5036852;28;19928;-84
2023/11/29 14:32:27;;;;;;;;;;;;;;;;;;5036740;28;19964;-83
2023/11/29 14:34:52;;;;;;;;;;;;;;;;;;5035715;28;20341;-83
2023/11/29 14:37:17;;;;;;;;;;;;;;;;;;5035873;28;19924;-84
2023/11/29 14:39:43;;;;;;;;;;;;;;;;;;5034772;28;19924;-82
2023/11/29 14:42:08;;;;;;;;;;;;;;;;;;5032365;28;20457;-83
2023/11/29 14:44:34;;;;;;;;;;;;;;;;;;5034759;28;19917;-85
2023/11/29 14:47:01;;;;;;;;;;;;;;;;;;5034255;28;19927;-84
2023/11/29 14:49:26;;;;;;;;;;;;;;;;;;5032978;28;19921;-83
2023/11/29 14:51:51;;;;;;;;;;;;;;;;;;5033854;28;20341;-83
2023/11/29 14:54:16;;;;;;;;;;;;;;;;;;5040573;28;19917;-83
2023/11/29 14:56:41;;;;;;;;;;;;;;;;;;5032746;28;20427;-84
2023/11/29 14:59:06;;;;;;;;;;;;;;;;;;5032800;28;19917;-82
2023/11/29 15:01:31;;;;;;;;;;;;;;;;;;5033847;28;20068;-84
2023/11/29 15:03:56;;;;;;;;;;;;;;;;;;5032626;28;19917;-82
2023/11/29 15:06:22;;;;;;;;;;;;;;;;;;5031123;28;20290;-84
2023/11/29 15:08:47;;;;;;;;;;;;;;;;;;5033953;28;20026;-85
2023/11/29 15:11:12;;;;;;;;;;;;;;;;;;5034001;28;20014;-82
2023/11/29 15:13:38;;;;;;;;;;;;;;;;;;5035534;28;20004;-82
2023/11/29 15:16:03;;;;;;;;;;;;;;;;;;5038480;28;20073;-82
2023/11/29 15:18:28;;;;;;;;;;;;;;;;;;5033318;28;20346;-83
2023/11/29 15:20:53;;;;;;;;;;;;;;;;;;5033619;28;19921;-83
2023/11/29 15:23:19;;;;;;;;;;;;;;;;;;5034987;28;19956;-84
2023/11/29 15:25:44;;;;;;;;;;;;;;;;;;5036327;28;19917;-85
2023/11/29 15:28:09;;;;;;;;;;;;;;;;;;5036417;28;19924;-83
2023/11/29 15:30:34;;;;;;;;;;;;;;;;;;5034012;28;19921;-83
2023/11/29 15:32:59;;;;;;;;;;;;;;;;;;5034932;28;19967;-83
2023/11/29 15:35:24;;;;;;;;;;;;;;;;;;5034552;28;19975;-82
2023/11/29 15:37:50;;;;;;;;;;;;;;;;;;5034388;28;20017;-82
2023/11/29 15:40:15;;;;;;;;;;;;;;;;;;5032781;28;20338;-82
2023/11/29 15:42:40;;;;;;;;;;;;;;;;;;5033026;28;19924;-83
2023/11/29 15:45:05;;;;;;;;;;;;;;;;;;5049419;28;19921;-83
2023/11/29 15:47:30;;;;;;;;;;;;;;;;;;5032704;28;20393;-83
2023/11/29 15:49:55;;;;;;;;;;;;;;;;;;5033893;28;19932;-82
2023/11/29 15:52:20;;;;;;;;;;;;;;;;;;5034084;28;20452;-83
2023/11/29 15:54:46;;;;;;;;;;;;;;;;;;5035955;28;19924;-82
2023/11/29 15:57:11;;;;;;;;;;;;;;;;;;5034183;28;19956;-82
2023/11/29 15:59:36;;;;;;;;;;;;;;;;;;5034361;28;19953;-82
2023/11/29 16:02:01;;;;;;;;;;;;;;;;;;5035564;28;19956;-82
2023/11/29 16:04:26;;;;;;;;;;;;;;;;;;5033668;28;20027;-81
2023/11/29 16:06:51;;;;;;;;;;;;;;;;;;5034577;28;20012;-82
2023/11/29 16:09:16;;;;;;;;;;;;;;;;;;5034518;28;19925;-81
2023/11/29 16:11:41;;;;;;;;;;;;;;;;;;5034958;28;19921;-82
2023/11/29 16:14:07;;;;;;;;;;;;;;;;;;5031436;28;20395;-81
2023/11/29 16:16:32;;;;;;;;;;;;;;;;;;5036307;28;19917;-81
2023/11/29 16:18:58;;;;;;;;;;;;;;;;;;5034055;28;19924;-81
2023/11/29 16:21:23;;;;;;;;;;;;;;;;;;5031854;28;20175;-82
2023/11/29 16:23:48;;;;;;;;;;;;;;;;;;5034286;28;20001;-82
2023/11/29 16:26:13;;;;;;;;;;;;;;;;;;5035604;28;20005;-81
2023/11/29 16:28:39;;;;;;;;;;;;;;;;;;5033912;28;19917;-81
2023/11/29 16:31:04;;;;;;;;;;;;;;;;;;5034648;28;19921;-83
2023/11/29 16:33:29;;;;;;;;;;;;;;;;;;5024154;28;19972;-82
2023/11/29 16:35:54;;;;;;;;;;;;;;;;;;5023086;28;19988;-83
2023/11/29 16:38:19;;;;;;;;;;;;;;;;;;5038905;28;19956;-81